Terminal Aerodrome Forecast
Issued by NWS Memphis, TN

Home | Current Version | Previous Version | Text Only | Print | Product List | Glossary On
Versions: 1 2 3 4 5 6 7 8 9 10 11 12 13 14 15 16 17
000
FTUS44 KMEG 190825 AAA
TAFMKL
TAF AMD
KMKL 190825Z 1908/2006 VRB03KT 6SM -SHRA BR BKN020
      TEMPO 1910/1913 4SM -SHRA BR BKN015
     FM191300 13006KT 5SM -SHRA BR BKN007 OVC012
      TEMPO 1916/1920 3SM SHRA BKN004
     FM192100 19006KT P6SM -SHRA SCT012 OVC030
     FM200100 21005KT P6SM VCSH SCT035 BKN120=

USA.gov is the U.S. government's official web portal to all federal, state and local government web resources and services.